createdAt,value
2022-10-11T00:00:08.118Z,76.07
2022-10-11T00:02:59.277Z,76.68
2022-10-11T00:05:50.931Z,75.59
2022-10-11T00:08:41.638Z,76.01
2022-10-11T00:11:34.867Z,75.98
2022-10-11T00:14:30.676Z,76.11
2022-10-11T00:17:22.773Z,75.59
2022-10-11T00:20:14.505Z,76.33
2022-10-11T00:23:05.787Z,76.71
2022-10-11T00:25:58.950Z,76.05
2022-10-11T00:28:52.102Z,76.32
2022-10-11T00:31:43.907Z,76.99
2022-10-11T00:34:36.765Z,76.33
2022-10-11T00:37:27.434Z,76.54
2022-10-11T00:40:20.541Z,76.54
2022-10-11T00:43:16.945Z,76.41
2022-10-11T00:46:27.663Z,76.25
2022-10-11T00:49:27.930Z,75.61
2022-10-11T00:52:32.025Z,75.88
2022-10-11T00:55:27.064Z,74.98
2022-10-11T00:58:19.860Z,75.78
2022-10-11T01:01:12.979Z,75.99
2022-10-11T01:04:06.585Z,75.10
2022-10-11T01:07:01.462Z,75.86
2022-10-11T01:09:52.365Z,75.31
2022-10-11T01:12:58.422Z,75.62
2022-10-11T01:15:57.164Z,75.86
2022-10-11T01:18:59.285Z,76.02
2022-10-11T01:21:57.851Z,74.88
2022-10-11T01:25:08.870Z,75.38
2022-10-11T01:28:19.773Z,75.70
2022-10-11T01:31:23.205Z,75.47
2022-10-11T01:34:22.634Z,75.49
2022-10-11T01:37:21.670Z,75.58
2022-10-11T01:40:18.021Z,75.06
2022-10-11T01:43:10.421Z,74.81
2022-10-11T01:46:04.316Z,75.95
2022-10-11T01:48:59.669Z,75.51
2022-10-11T01:51:53.916Z,75.60
2022-10-11T01:55:09.539Z,75.96
2022-10-11T01:58:09.532Z,76.89
2022-10-11T02:01:15.663Z,75.65
2022-10-11T02:04:16.635Z,75.59
2022-10-11T02:07:13.627Z,76.29
2022-10-11T02:10:13.161Z,76.28
2022-10-11T02:13:09.192Z,76.66
2022-10-11T02:16:04.785Z,76.60
2022-10-11T02:18:58.144Z,76.93
2022-10-11T02:21:54.765Z,76.60
2022-10-11T02:24:49.608Z,76.59
2022-10-11T02:27:43.123Z,76.77
2022-10-11T02:30:35.837Z,76.41
2022-10-11T02:33:33.688Z,77.08
2022-10-11T02:36:30.504Z,76.91
2022-10-11T02:39:26.191Z,77.05
2022-10-11T02:42:21.100Z,76.80
2022-10-11T02:45:18.217Z,77.08
2022-10-11T02:48:12.723Z,76.37
2022-10-11T02:51:05.040Z,76.56
2022-10-11T02:54:01.280Z,77.32
2022-10-11T02:56:52.615Z,76.65
2022-10-11T02:59:43.688Z,77.26
2022-10-11T03:02:34.829Z,76.32
2022-10-11T03:05:30.280Z,77.40
2022-10-11T03:08:22.205Z,76.73
2022-10-11T03:11:22.208Z,77.18
2022-10-11T03:14:18.431Z,77.26
2022-10-11T03:17:34.404Z,77.01
2022-10-11T03:20:24.797Z,76.73
2022-10-11T03:23:16.586Z,77.61
2022-10-11T03:26:08.654Z,77.44
2022-10-11T03:29:00.358Z,77.16
2022-10-11T03:31:51.716Z,77.65
2022-10-11T03:34:44.278Z,76.56
2022-10-11T03:37:34.605Z,77.49
2022-10-11T03:40:26.584Z,76.38
2022-10-11T03:43:18.628Z,77.19
2022-10-11T03:46:09.551Z,77.50
2022-10-11T03:49:01.113Z,77.25
2022-10-11T03:51:51.587Z,77.41
2022-10-11T03:54:42.480Z,77.20
2022-10-11T03:57:34.071Z,77.39
2022-10-11T04:00:24.689Z,77.79
2022-10-11T04:03:15.818Z,77.28
2022-10-11T04:06:08.762Z,77.71
2022-10-11T04:09:00.541Z,77.38
2022-10-11T04:11:55.148Z,77.99
2022-10-11T04:14:46.163Z,77.23
2022-10-11T04:17:37.522Z,77.06
2022-10-11T04:20:28.333Z,77.19
2022-10-11T04:23:18.805Z,77.06
2022-10-11T04:26:10.099Z,77.26
2022-10-11T04:29:01.088Z,77.29
2022-10-11T04:31:59.092Z,77.16
2022-10-11T04:34:51.501Z,77.34
2022-10-11T04:37:44.535Z,77.51
2022-10-11T04:40:37.454Z,77.32
2022-10-11T04:43:28.954Z,76.99
2022-10-11T04:46:22.596Z,77.22
2022-10-11T04:49:14.492Z,77.59
2022-10-11T04:52:04.851Z,77.22
2022-10-11T04:54:57.974Z,77.07
2022-10-11T04:57:48.485Z,77.62
2022-10-11T05:00:39.883Z,78.05
2022-10-11T05:03:33.101Z,77.38
2022-10-11T05:06:45.502Z,77.20
2022-10-11T05:09:37.414Z,77.30
2022-10-11T05:12:30.844Z,77.56
2022-10-11T05:15:24.611Z,77.25
2022-10-11T05:18:23.968Z,77.62
2022-10-11T05:21:33.164Z,77.75
2022-10-11T05:24:25.195Z,78.03
2022-10-11T05:27:17.847Z,77.70
2022-10-11T05:30:13.748Z,78.11
2022-10-11T05:33:04.429Z,77.38
2022-10-11T05:35:55.170Z,77.50
2022-10-11T05:38:48.227Z,77.53
2022-10-11T05:41:41.272Z,77.53
2022-10-11T05:44:33.000Z,77.91
2022-10-11T05:47:24.221Z,77.62
2022-10-11T05:50:19.692Z,77.68
2022-10-11T05:53:10.629Z,78.02
2022-10-11T05:56:02.365Z,77.75
2022-10-11T05:59:01.456Z,77.94
2022-10-11T06:01:56.302Z,77.43
2022-10-11T06:04:48.085Z,77.52
2022-10-11T06:07:40.261Z,77.11
2022-10-11T06:10:32.145Z,77.05
2022-10-11T06:13:24.196Z,76.96
2022-10-11T06:16:28.491Z,77.11
2022-10-11T06:19:46.207Z,76.97
2022-10-11T06:23:02.622Z,77.05
2022-10-11T06:26:11.305Z,77.34
2022-10-11T06:29:15.914Z,76.88
2022-10-11T06:32:23.781Z,77.12
2022-10-11T06:35:32.054Z,76.76
2022-10-11T06:38:39.788Z,76.76
2022-10-11T06:41:57.266Z,76.34
2022-10-11T06:45:04.801Z,76.84
2022-10-11T06:48:12.720Z,77.10
2022-10-11T06:51:23.805Z,76.31
2022-10-11T06:54:41.230Z,76.30
2022-10-11T06:57:54.918Z,76.64
2022-10-11T07:01:20.762Z,76.28
2022-10-11T07:04:27.672Z,73.83
2022-10-11T07:07:35.501Z,74.56
2022-10-11T07:10:45.444Z,74.93
2022-10-11T07:13:57.598Z,74.94
2022-10-11T07:17:19.033Z,74.81
2022-10-11T07:20:27.107Z,74.69
2022-10-11T07:23:39.372Z,74.36
2022-10-11T07:27:00.334Z,74.28
2022-10-11T07:30:05.858Z,74.08
2022-10-11T07:33:19.879Z,73.81
2022-10-11T07:36:29.455Z,73.52
2022-10-11T07:39:45.900Z,74.02
2022-10-11T07:42:50.337Z,73.75
2022-10-11T07:46:10.971Z,73.24
2022-10-11T07:49:19.323Z,72.59
2022-10-11T07:52:24.403Z,72.80
2022-10-11T07:55:35.612Z,72.56
2022-10-11T07:58:40.531Z,66.81
2022-10-11T08:01:48.196Z,69.16
2022-10-11T08:05:27.444Z,69.03
2022-10-11T08:08:47.178Z,68.67
2022-10-11T08:12:00.686Z,68.82
2022-10-11T08:15:09.263Z,62.75
2022-10-11T08:18:13.732Z,61.07
2022-10-11T08:21:27.876Z,65.32
2022-10-11T08:24:39.485Z,65.79
2022-10-11T08:27:44.349Z,66.41
2022-10-11T08:30:55.052Z,61.46
2022-10-11T08:34:05.574Z,64.03
2022-10-11T08:37:11.374Z,65.04
2022-10-11T08:40:24.479Z,64.06
2022-10-11T08:43:44.569Z,63.84
2022-10-11T08:46:21.495Z,64.57
2022-10-11T08:48:55.300Z,65.33
2022-10-11T08:51:30.958Z,66.56
2022-10-11T08:54:13.482Z,66.87
2022-10-11T08:56:46.651Z,66.47
2022-10-11T08:59:30.644Z,65.84
2022-10-11T09:02:12.755Z,65.94
2022-10-11T09:04:45.523Z,66.87
2022-10-11T09:07:28.025Z,67.12
2022-10-11T09:10:17.203Z,67.28
2022-10-11T09:12:59.204Z,66.94
2022-10-11T09:15:43.368Z,66.46
2022-10-11T09:18:31.966Z,66.27
2022-10-11T09:21:23.849Z,66.33
2022-10-11T09:24:13.350Z,65.62
2022-10-11T09:26:55.339Z,65.49
2022-10-11T09:29:46.263Z,65.95
2022-10-11T09:32:21.627Z,65.86
2022-10-11T09:35:00.130Z,65.53
2022-10-11T09:37:41.349Z,65.00
2022-10-11T09:40:27.565Z,65.24
2022-10-11T09:43:00.048Z,65.79
2022-10-11T09:45:32.508Z,65.59
2022-10-11T09:48:08.047Z,65.57
2022-10-11T09:50:40.699Z,65.55
2022-10-11T09:53:13.378Z,65.31
2022-10-11T09:55:50.869Z,65.84
2022-10-11T09:58:29.828Z,65.68
2022-10-11T10:01:08.253Z,64.79
2022-10-11T10:03:43.949Z,65.25
2022-10-11T10:06:22.261Z,65.43
2022-10-11T10:08:55.987Z,65.18
2022-10-11T10:11:37.436Z,65.81
2022-10-11T10:14:20.561Z,64.65
2022-10-11T10:17:02.832Z,64.59
2022-10-11T10:19:45.044Z,63.77
2022-10-11T10:22:20.638Z,65.49
2022-10-11T10:24:56.674Z,64.71
2022-10-11T10:27:30.671Z,63.84
2022-10-11T10:30:13.849Z,64.93
2022-10-11T10:32:53.453Z,64.74
2022-10-11T10:35:37.198Z,64.96
2022-10-11T10:38:16.678Z,64.33
2022-10-11T10:40:54.265Z,64.38
2022-10-11T10:43:33.398Z,64.44
2022-10-11T10:46:31.098Z,63.88
2022-10-11T10:52:40.154Z,64.10
2022-10-11T10:55:22.948Z,64.31
2022-10-11T10:58:21.174Z,64.00
2022-10-11T11:01:00.117Z,63.62
2022-10-11T11:03:44.928Z,65.13
2022-10-11T11:06:26.585Z,65.22
2022-10-11T11:09:19.786Z,64.57
2022-10-11T11:12:01.510Z,63.77
2022-10-11T11:14:47.741Z,62.83
2022-10-11T11:17:29.228Z,63.20
2022-10-11T11:20:15.879Z,62.87
2022-10-11T11:22:55.783Z,63.32
2022-10-11T11:25:44.847Z,63.33
2022-10-11T11:28:40.198Z,63.77
2022-10-11T11:31:27.098Z,62.31
2022-10-11T11:34:11.669Z,63.47
2022-10-11T11:36:48.115Z,62.12
2022-10-11T11:39:24.051Z,62.30
2022-10-11T11:42:04.513Z,62.01
2022-10-11T11:44:40.598Z,62.03
2022-10-11T11:47:19.282Z,61.95
2022-10-11T11:50:01.756Z,61.64
2022-10-11T11:52:40.180Z,61.67
2022-10-11T11:55:17.679Z,61.74
2022-10-11T11:58:06.983Z,61.66
2022-10-11T12:00:50.119Z,61.93
2022-10-11T12:03:28.012Z,61.37
2022-10-11T12:06:21.217Z,61.11
2022-10-11T12:09:08.141Z,61.43
2022-10-11T12:11:53.041Z,61.11
2022-10-11T12:14:35.091Z,61.13
2022-10-11T12:17:14.933Z,60.92
2022-10-11T12:20:14.998Z,62.24
2022-10-11T12:23:00.786Z,62.26
2022-10-11T12:25:43.943Z,61.18
2022-10-11T12:28:59.664Z,61.55
2022-10-11T12:31:36.904Z,61.76
2022-10-11T12:34:35.395Z,62.21
2022-10-11T12:37:51.181Z,61.99
2022-10-11T12:40:41.922Z,61.32
2022-10-11T12:43:30.877Z,60.93
2022-10-11T12:46:40.603Z,61.18
2022-10-11T12:49:25.956Z,60.61
2022-10-11T12:52:01.500Z,60.65
2022-10-11T12:55:00.705Z,60.43
2022-10-11T12:58:04.395Z,59.51
2022-10-11T13:00:43.782Z,59.57
2022-10-11T13:03:32.588Z,60.39
2022-10-11T13:06:15.858Z,59.94
2022-10-11T13:08:53.354Z,59.71
2022-10-11T13:11:32.058Z,61.20
2022-10-11T13:14:11.755Z,60.46
2022-10-11T13:16:58.801Z,60.35
2022-10-11T13:19:34.425Z,58.90
2022-10-11T13:22:17.382Z,58.87
2022-10-11T13:24:50.402Z,59.05
2022-10-11T13:27:26.455Z,58.85
2022-10-11T13:30:02.263Z,58.75
2022-10-11T13:32:37.175Z,59.83
2022-10-11T13:35:19.831Z,59.48
2022-10-11T13:37:55.287Z,59.37
2022-10-11T13:40:29.568Z,58.72
2022-10-11T13:43:05.745Z,59.67
2022-10-11T13:45:41.439Z,59.11
2022-10-11T13:48:16.573Z,59.25
2022-10-11T13:51:09.262Z,59.46
2022-10-11T13:53:57.664Z,59.30
2022-10-11T13:56:35.106Z,58.96
2022-10-11T13:59:08.026Z,58.24
2022-10-11T14:01:44.422Z,58.30
2022-10-11T14:04:17.653Z,58.60
2022-10-11T14:06:56.555Z,58.44
2022-10-11T14:09:32.274Z,58.82
2022-10-11T14:12:33.116Z,59.04
2022-10-11T14:15:24.504Z,59.07
2022-10-11T14:17:58.602Z,59.10
2022-10-11T14:20:40.958Z,58.61
2022-10-11T14:23:14.801Z,58.58
2022-10-11T14:25:47.256Z,58.07
2022-10-11T14:28:19.742Z,58.18
2022-10-11T14:30:55.147Z,57.76
2022-10-11T14:33:28.289Z,57.66
2022-10-11T14:36:00.903Z,57.87
2022-10-11T14:38:34.775Z,57.75
2022-10-11T14:41:07.385Z,57.79
2022-10-11T14:43:39.816Z,57.62
2022-10-11T14:46:22.580Z,57.74
2022-10-11T14:48:56.491Z,58.51
2022-10-11T14:51:34.991Z,58.19
2022-10-11T14:54:09.245Z,58.24
2022-10-11T14:56:42.019Z,58.13
2022-10-11T14:59:16.421Z,58.39
2022-10-11T15:01:54.116Z,58.41
2022-10-11T15:04:27.907Z,58.50
2022-10-11T15:07:00.906Z,58.71
2022-10-11T15:09:38.199Z,59.04
2022-10-11T15:12:10.927Z,59.05
2022-10-11T15:14:43.315Z,59.49
2022-10-11T15:17:15.867Z,59.55
2022-10-11T15:19:48.533Z,59.67
2022-10-11T15:22:21.170Z,59.94
2022-10-11T15:24:55.389Z,60.06
2022-10-11T15:27:28.940Z,60.52
2022-10-11T15:30:01.473Z,60.78
2022-10-11T15:32:35.955Z,60.78
2022-10-11T15:35:10.569Z,60.97
2022-10-11T15:37:43.654Z,61.45
2022-10-11T15:40:22.089Z,61.48
2022-10-11T15:42:55.372Z,61.70
2022-10-11T15:45:29.202Z,61.82
2022-10-11T15:48:02.319Z,62.21
2022-10-11T15:50:41.588Z,62.21
2022-10-11T15:53:16.548Z,62.42
2022-10-11T15:55:52.694Z,62.64
2022-10-11T15:58:30.358Z,63.03
2022-10-11T16:01:06.245Z,63.16
2022-10-11T16:03:39.377Z,63.30
2022-10-11T16:06:12.521Z,63.33
2022-10-11T16:08:46.470Z,63.67
2022-10-11T16:11:20.997Z,63.95
2022-10-11T16:13:53.648Z,64.34
2022-10-11T16:16:26.063Z,64.35
2022-10-11T16:18:58.962Z,64.63
2022-10-11T16:21:31.625Z,64.90
2022-10-11T16:24:15.176Z,65.35
2022-10-11T16:26:49.282Z,65.08
2022-10-11T16:29:22.246Z,65.60
2022-10-11T16:31:55.054Z,65.13
2022-10-11T16:34:27.884Z,65.52
2022-10-11T16:37:00.719Z,66.03
2022-10-11T16:39:40.324Z,65.86
2022-10-11T16:42:14.248Z,65.86
2022-10-11T16:44:46.817Z,66.74
2022-10-11T16:47:19.592Z,66.31
2022-10-11T16:49:52.191Z,66.37
2022-10-11T16:52:24.723Z,66.31
2022-10-11T16:54:57.387Z,66.91
2022-10-11T16:57:31.554Z,66.52
2022-10-11T17:00:06.665Z,66.72
2022-10-11T17:02:42.189Z,67.10
2022-10-11T17:05:14.808Z,68.03
2022-10-11T17:07:47.222Z,67.99
2022-10-11T17:10:39.434Z,67.96
2022-10-11T17:13:14.561Z,67.80
2022-10-11T17:15:47.825Z,67.77
2022-10-11T17:18:20.487Z,68.71
2022-10-11T17:21:01.326Z,68.96
2022-10-11T17:23:34.383Z,69.10
2022-10-11T17:26:11.361Z,68.65
2022-10-11T17:28:45.726Z,68.64
2022-10-11T17:31:18.654Z,68.91
2022-10-11T17:33:53.303Z,68.83
2022-10-11T17:36:30.674Z,69.61
2022-10-11T17:39:07.485Z,68.90
2022-10-11T17:41:40.768Z,68.87
2022-10-11T17:44:17.502Z,69.27
2022-10-11T17:46:51.400Z,69.46
2022-10-11T17:49:24.884Z,68.99
2022-10-11T17:51:57.429Z,69.15
2022-10-11T17:54:30.372Z,70.34
2022-10-11T17:57:03.894Z,70.09
2022-10-11T17:59:40.165Z,70.37
2022-10-11T18:02:14.781Z,70.51
2022-10-11T18:04:47.601Z,71.12
2022-10-11T18:07:20.248Z,70.17
2022-10-11T18:09:52.734Z,70.91
2022-10-11T18:12:26.288Z,71.19
2022-10-11T18:15:00.207Z,70.67
2022-10-11T18:17:32.824Z,71.29
2022-10-11T18:20:06.233Z,70.31
2022-10-11T18:22:39.026Z,69.74
2022-10-11T18:25:11.564Z,70.19
2022-10-11T18:27:44.328Z,70.88
2022-10-11T18:30:18.769Z,70.32
2022-10-11T18:32:51.609Z,70.33
2022-10-11T18:35:24.053Z,70.68
2022-10-11T18:38:00.794Z,70.55
2022-10-11T18:40:37.315Z,70.25
2022-10-11T18:43:09.913Z,70.95
2022-10-11T18:45:43.819Z,70.39
2022-10-11T18:48:16.840Z,70.94
2022-10-11T18:50:50.428Z,71.20
2022-10-11T18:57:03.292Z,71.59
2022-10-11T18:59:36.448Z,71.75
2022-10-11T19:02:12.238Z,71.27
2022-10-11T19:04:52.705Z,71.32
2022-10-11T19:07:25.690Z,71.80
2022-10-11T19:09:58.290Z,72.05
2022-10-11T19:12:30.690Z,71.81
2022-10-11T19:15:03.596Z,71.69
2022-10-11T19:17:37.611Z,71.68
2022-10-11T19:20:11.005Z,72.09
2022-10-11T19:22:43.554Z,72.28
2022-10-11T19:25:16.186Z,72.22
2022-10-11T19:27:48.731Z,72.31
2022-10-11T19:30:24.764Z,71.60
2022-10-11T19:32:58.595Z,71.78
2022-10-11T19:35:31.714Z,71.61
2022-10-11T19:38:04.400Z,72.66
2022-10-11T19:40:37.263Z,72.77
2022-10-11T19:43:09.733Z,71.97
2022-10-11T19:45:42.311Z,72.76
2022-10-11T19:48:16.206Z,72.28
2022-10-11T19:50:48.815Z,72.30
2022-10-11T19:53:21.225Z,72.60
2022-10-11T19:55:53.810Z,72.84
2022-10-11T19:58:26.374Z,72.94
2022-10-11T20:01:04.253Z,72.62
2022-10-11T20:03:39.023Z,73.02
2022-10-11T20:06:12.428Z,73.46
2022-10-11T20:08:45.961Z,72.63
2022-10-11T20:11:20.793Z,72.32
2022-10-11T20:13:54.605Z,72.52
2022-10-11T20:16:28.612Z,73.10
2022-10-11T20:19:02.676Z,72.98
2022-10-11T20:21:35.228Z,72.94
2022-10-11T20:24:08.731Z,72.38
2022-10-11T20:26:41.328Z,72.54
2022-10-11T20:29:13.867Z,73.22
2022-10-11T20:31:46.511Z,72.85
2022-10-11T20:34:20.357Z,72.51
2022-10-11T20:36:52.901Z,73.17
2022-10-11T20:39:27.205Z,72.96
2022-10-11T20:41:59.939Z,72.98
2022-10-11T20:44:32.304Z,73.16
2022-10-11T20:47:04.933Z,73.09
2022-10-11T20:49:38.948Z,73.13
2022-10-11T20:52:11.484Z,73.52
2022-10-11T20:54:44.004Z,73.10
2022-10-11T20:57:16.593Z,73.79
2022-10-11T20:59:49.047Z,72.63
2022-10-11T21:02:21.669Z,74.01
2022-10-11T21:04:55.502Z,72.95
2022-10-11T21:07:27.977Z,73.33
2022-10-11T21:10:00.519Z,73.58
2022-10-11T21:12:33.720Z,73.45
2022-10-11T21:15:09.484Z,73.90
2022-10-11T21:17:42.132Z,73.64
2022-10-11T21:20:16.266Z,73.04
2022-10-11T21:22:48.869Z,73.38
2022-10-11T21:25:21.700Z,73.40
2022-10-11T21:27:54.209Z,72.95
2022-10-11T21:30:26.679Z,73.52
2022-10-11T21:32:59.486Z,73.07
2022-10-11T21:35:33.298Z,73.22
2022-10-11T21:38:05.882Z,72.97
2022-10-11T21:40:39.314Z,73.48
2022-10-11T21:43:12.171Z,73.69
2022-10-11T21:45:44.601Z,73.65
2022-10-11T21:48:19.773Z,73.25
2022-10-11T21:50:54.678Z,73.92
2022-10-11T21:53:27.304Z,74.34
2022-10-11T21:56:00.355Z,73.88
2022-10-11T21:58:32.800Z,73.35
2022-10-11T22:01:06.196Z,73.53
2022-10-11T22:03:38.889Z,73.75
2022-10-11T22:06:13.199Z,73.54
2022-10-11T22:08:45.818Z,73.68
2022-10-11T22:11:18.440Z,73.63
2022-10-11T22:13:51.032Z,73.89
2022-10-11T22:16:23.595Z,73.60
2022-10-11T22:18:56.191Z,73.96
2022-10-11T22:21:30.324Z,73.32
2022-10-11T22:24:03.152Z,73.51
2022-10-11T22:26:35.821Z,73.37
2022-10-11T22:29:08.462Z,73.69
2022-10-11T22:31:41.427Z,73.57
2022-10-11T22:34:14.079Z,73.30
2022-10-11T22:36:48.009Z,73.85
2022-10-11T22:39:20.445Z,73.36
2022-10-11T22:41:54.124Z,73.51
2022-10-11T22:44:26.685Z,74.19
2022-10-11T22:46:59.029Z,73.81
2022-10-11T22:49:31.564Z,73.51
2022-10-11T22:52:05.634Z,73.59
2022-10-11T22:54:38.261Z,74.13
2022-10-11T22:57:10.701Z,74.06
2022-10-11T22:59:43.336Z,73.43
2022-10-11T23:02:15.866Z,73.91
2022-10-11T23:04:48.504Z,73.78
2022-10-11T23:07:22.338Z,73.88
2022-10-11T23:09:54.869Z,73.87
2022-10-11T23:12:27.383Z,73.70
2022-10-11T23:15:00.118Z,73.76
2022-10-11T23:17:32.535Z,74.17
2022-10-11T23:20:06.186Z,73.90
2022-10-11T23:22:40.106Z,74.08
2022-10-11T23:25:12.825Z,73.85
2022-10-11T23:27:45.241Z,73.69
2022-10-11T23:30:17.955Z,74.27
2022-10-11T23:32:50.493Z,73.61
2022-10-11T23:35:23.511Z,74.05
2022-10-11T23:37:57.342Z,73.76
2022-10-11T23:40:29.854Z,74.21
2022-10-11T23:43:02.428Z,73.43
2022-10-11T23:45:35.137Z,73.79
2022-10-11T23:48:07.490Z,73.94
2022-10-11T23:50:40.065Z,74.00
2022-10-11T23:53:13.989Z,74.23
2022-10-11T23:55:46.615Z,74.01
2022-10-11T23:58:19.015Z,73.44
